This is the latest recevied weather packets stored in our database for station/object CQ0XPG-11. If no packets are shown the sender has not sent any weather packets the latest 10 day(s).
| Time | Temp. | Humidity | Pressure | Rain* | Wind** | Luminosity | Snow |
|---|---|---|---|---|---|---|---|
| 1778267313 | 13.33° C | 100% | 996.9 hPa | 0.51 mm | - | - | - |
| 1778267038 | 14.44° C | 100% | 996.9 hPa | 0.51 mm | - | - | - |
| 1778266426 | 15.56° C | 94% | 996.4 hPa | 0.25 mm | - | - | - |
| 1778263373 | 16.67° C | 72% | 996.4 hPa | 0.25 mm | - | - | - |
| 1778263075 | 16.67° C | 69% | 996.4 hPa | 0.25 mm | - | - | - |
| 1778262764 | 16.67° C | 66% | 996.5 hPa | 0.25 mm | - | - | - |
| 1778262450 | 16.67° C | 66% | 996.4 hPa | 0.25 mm | - | - | - |
| 1778261864 | 16.67° C | 60% | 996.6 hPa | 0.25 mm | - | - | - |
| 1778261554 | 16.67° C | 60% | 996.6 hPa | 0.25 mm | - | - | - |
| 1778261247 | 17.22° C | 60% | 996.5 hPa | 0.25 mm | - | - | - |
| 1778260948 | 17.22° C | 61% | 996.7 hPa | 0.25 mm | - | - | - |
| 1778260643 | 17.22° C | 59% | 996.7 hPa | 0.25 mm | - | - | - |
| 1778260341 | 17.22° C | 59% | 996.7 hPa | 0.25 mm | - | - | - |
| 1778260034 | 17.78° C | 56% | 996.8 hPa | 0.25 mm | - | - | - |
| 1778259735 | 18.33° C | 56% | 996.6 hPa | 0.25 mm | - | - | - |
| 1778259140 | 18.33° C | 60% | 996.7 hPa | 0.25 mm | - | - | - |
| 1778258820 | 17.78° C | 60% | 996.6 hPa | 0.25 mm | - | - | - |
| 1778258528 | 17.78° C | 62% | 996.6 hPa | 0.25 mm | - | - | - |
| 1778258223 | 17.78° C | 62% | 996.7 hPa | 0.25 mm | - | - | - |
| 1778257922 | 17.78° C | 62% | 996.8 hPa | 0.25 mm | - | - | - |
| 1778257603 | 18.33° C | 55% | 996.9 hPa | 0.25 mm | - | - | - |
| 1778257309 | 18.33° C | 54% | 996.9 hPa | 0.25 mm | - | - | - |
| 1778256992 | 18.33° C | 52% | 996.9 hPa | 0.25 mm | - | - | - |
| 1778256704 | 18.33° C | 51% | 996.9 hPa | 0.25 mm | - | - | - |
| 1778256391 | 18.89° C | 49% | 997 hPa | 0.25 mm | - | - | - |
* Rain since midnight (hover to see other rain measurements)
** Current wind speed in m/s (hover to see current wind gust speed)